sensor_id;sensor_type;location;lat;lon;timestamp;P1;durP1;ratioP1;P2;durP2;ratioP2
44228;SDS011;29904;51.058;5.378;2022-09-13T00:00:42;3.47;;;2.70;;
44228;SDS011;29904;51.058;5.378;2022-09-13T00:03:09;4.35;;;2.72;;
44228;SDS011;29904;51.058;5.378;2022-09-13T00:05:36;3.97;;;2.60;;
44228;SDS011;29904;51.058;5.378;2022-09-13T00:08:03;4.10;;;2.50;;
44228;SDS011;29904;51.058;5.378;2022-09-13T00:10:32;3.45;;;2.17;;
44228;SDS011;29904;51.058;5.378;2022-09-13T00:13:00;4.40;;;2.37;;
44228;SDS011;29904;51.058;5.378;2022-09-13T00:15:26;4.70;;;2.50;;
44228;SDS011;29904;51.058;5.378;2022-09-13T00:17:51;3.08;;;2.28;;
44228;SDS011;29904;51.058;5.378;2022-09-13T00:20:17;3.22;;;2.40;;
44228;SDS011;29904;51.058;5.378;2022-09-13T00:22:43;3.63;;;2.43;;
44228;SDS011;29904;51.058;5.378;2022-09-13T00:25:11;3.25;;;2.25;;
44228;SDS011;29904;51.058;5.378;2022-09-13T00:27:37;5.03;;;2.40;;
44228;SDS011;29904;51.058;5.378;2022-09-13T00:30:03;4.15;;;2.53;;
44228;SDS011;29904;51.058;5.378;2022-09-13T00:32:30;5.40;;;2.33;;
44228;SDS011;29904;51.058;5.378;2022-09-13T00:34:56;3.22;;;2.28;;
44228;SDS011;29904;51.058;5.378;2022-09-13T00:37:22;4.18;;;2.28;;
44228;SDS011;29904;51.058;5.378;2022-09-13T00:39:48;3.67;;;2.22;;
44228;SDS011;29904;51.058;5.378;2022-09-13T00:42:14;2.60;;;2.00;;
44228;SDS011;29904;51.058;5.378;2022-09-13T00:44:53;3.92;;;2.15;;
44228;SDS011;29904;51.058;5.378;2022-09-13T00:47:23;3.53;;;2.20;;
44228;SDS011;29904;51.058;5.378;2022-09-13T00:50:01;3.90;;;2.20;;
44228;SDS011;29904;51.058;5.378;2022-09-13T00:52:39;2.43;;;2.00;;
44228;SDS011;29904;51.058;5.378;2022-09-13T00:55:11;3.80;;;2.20;;
44228;SDS011;29904;51.058;5.378;2022-09-13T00:57:42;3.13;;;1.73;;
44228;SDS011;29904;51.058;5.378;2022-09-13T01:00:09;5.22;;;2.25;;
44228;SDS011;29904;51.058;5.378;2022-09-13T01:02:48;2.40;;;2.00;;
44228;SDS011;29904;51.058;5.378;2022-09-13T01:05:27;4.78;;;2.30;;
44228;SDS011;29904;51.058;5.378;2022-09-13T01:07:57;3.15;;;2.25;;
44228;SDS011;29904;51.058;5.378;2022-09-13T01:10:24;3.40;;;2.08;;
44228;SDS011;29904;51.058;5.378;2022-09-13T01:12:55;3.20;;;2.33;;
44228;SDS011;29904;51.058;5.378;2022-09-13T01:15:38;2.90;;;2.10;;
44228;SDS011;29904;51.058;5.378;2022-09-13T01:18:08;2.42;;;2.00;;
44228;SDS011;29904;51.058;5.378;2022-09-13T01:28:48;3.83;;;2.22;;
44228;SDS011;29904;51.058;5.378;2022-09-13T01:31:42;2.78;;;2.05;;
44228;SDS011;29904;51.058;5.378;2022-09-13T01:45:35;2.67;;;1.92;;
44228;SDS011;29904;51.058;5.378;2022-09-13T01:51:09;3.50;;;2.20;;
44228;SDS011;29904;51.058;5.378;2022-09-13T01:56:31;3.65;;;1.90;;
44228;SDS011;29904;51.058;5.378;2022-09-13T01:59:09;2.55;;;1.98;;
44228;SDS011;29904;51.058;5.378;2022-09-13T02:01:45;2.10;;;1.80;;
44228;SDS011;29904;51.058;5.378;2022-09-13T02:04:21;3.05;;;1.92;;
44228;SDS011;29904;51.058;5.378;2022-09-13T02:07:01;2.03;;;1.70;;
44228;SDS011;29904;51.058;5.378;2022-09-13T02:09:39;3.20;;;1.80;;
44228;SDS011;29904;51.058;5.378;2022-09-13T02:12:22;3.40;;;1.77;;
44228;SDS011;29904;51.058;5.378;2022-09-13T02:17:48;2.00;;;1.50;;
44228;SDS011;29904;51.058;5.378;2022-09-13T02:20:41;4.03;;;2.00;;
44228;SDS011;29904;51.058;5.378;2022-09-13T02:23:12;2.63;;;1.77;;
44228;SDS011;29904;51.058;5.378;2022-09-13T02:25:45;2.83;;;1.63;;
44228;SDS011;29904;51.058;5.378;2022-09-13T02:28:16;2.85;;;1.83;;
44228;SDS011;29904;51.058;5.378;2022-09-13T02:30:49;2.58;;;1.70;;
44228;SDS011;29904;51.058;5.378;2022-09-13T02:33:21;3.05;;;1.95;;
44228;SDS011;29904;51.058;5.378;2022-09-13T02:35:55;3.05;;;1.58;;
44228;SDS011;29904;51.058;5.378;2022-09-13T02:38:33;2.35;;;1.30;;
44228;SDS011;29904;51.058;5.378;2022-09-13T02:41:04;2.55;;;1.52;;
44228;SDS011;29904;51.058;5.378;2022-09-13T02:43:41;3.15;;;1.70;;
44228;SDS011;29904;51.058;5.378;2022-09-13T02:49:12;1.83;;;1.50;;
44228;SDS011;29904;51.058;5.378;2022-09-13T02:54:26;2.90;;;1.60;;
44228;SDS011;29904;51.058;5.378;2022-09-13T02:57:10;2.08;;;1.40;;
44228;SDS011;29904;51.058;5.378;2022-09-13T02:59:42;2.30;;;1.70;;
44228;SDS011;29904;51.058;5.378;2022-09-13T03:02:12;3.08;;;1.55;;
44228;SDS011;29904;51.058;5.378;2022-09-13T03:04:40;2.67;;;1.67;;
44228;SDS011;29904;51.058;5.378;2022-09-13T03:07:13;2.55;;;1.63;;
44228;SDS011;29904;51.058;5.378;2022-09-13T03:09:52;4.22;;;1.70;;
44228;SDS011;29904;51.058;5.378;2022-09-13T03:12:28;3.42;;;1.75;;
44228;SDS011;29904;51.058;5.378;2022-09-13T03:23:02;2.67;;;1.70;;
44228;SDS011;29904;51.058;5.378;2022-09-13T03:31:26;2.83;;;1.50;;
44228;SDS011;29904;51.058;5.378;2022-09-13T03:34:18;4.20;;;1.90;;
44228;SDS011;29904;51.058;5.378;2022-09-13T03:39:56;1.95;;;1.65;;
44228;SDS011;29904;51.058;5.378;2022-09-13T03:42:34;2.85;;;1.80;;
44228;SDS011;29904;51.058;5.378;2022-09-13T03:45:07;2.50;;;1.70;;
44228;SDS011;29904;51.058;5.378;2022-09-13T03:47:35;2.30;;;1.50;;
44228;SDS011;29904;51.058;5.378;2022-09-13T03:50:04;2.70;;;1.60;;
44228;SDS011;29904;51.058;5.378;2022-09-13T03:52:32;2.08;;;1.52;;
44228;SDS011;29904;51.058;5.378;2022-09-13T03:54:59;3.70;;;1.85;;
44228;SDS011;29904;51.058;5.378;2022-09-13T03:57:26;2.53;;;1.70;;
44228;SDS011;29904;51.058;5.378;2022-09-13T03:59:52;1.73;;;1.50;;
44228;SDS011;29904;51.058;5.378;2022-09-13T04:02:20;2.75;;;1.60;;
44228;SDS011;29904;51.058;5.378;2022-09-13T04:04:47;2.60;;;1.70;;
44228;SDS011;29904;51.058;5.378;2022-09-13T04:07:14;2.17;;;1.40;;
44228;SDS011;29904;51.058;5.378;2022-09-13T04:09:42;3.70;;;1.60;;
44228;SDS011;29904;51.058;5.378;2022-09-13T04:12:10;3.55;;;1.70;;
44228;SDS011;29904;51.058;5.378;2022-09-13T04:14:38;3.15;;;1.70;;
44228;SDS011;29904;51.058;5.378;2022-09-13T04:17:04;2.22;;;1.45;;
44228;SDS011;29904;51.058;5.378;2022-09-13T04:19:32;2.93;;;1.50;;
44228;SDS011;29904;51.058;5.378;2022-09-13T04:21:58;3.63;;;1.57;;
44228;SDS011;29904;51.058;5.378;2022-09-13T04:24:25;3.00;;;1.70;;
44228;SDS011;29904;51.058;5.378;2022-09-13T04:26:53;2.63;;;1.60;;
44228;SDS011;29904;51.058;5.378;2022-09-13T04:29:19;2.95;;;1.63;;
44228;SDS011;29904;51.058;5.378;2022-09-13T04:31:46;3.03;;;1.60;;
44228;SDS011;29904;51.058;5.378;2022-09-13T04:34:13;2.65;;;1.67;;
44228;SDS011;29904;51.058;5.378;2022-09-13T04:36:39;2.00;;;1.30;;
44228;SDS011;29904;51.058;5.378;2022-09-13T04:39:05;3.50;;;1.52;;
44228;SDS011;29904;51.058;5.378;2022-09-13T04:41:33;3.35;;;1.50;;
44228;SDS011;29904;51.058;5.378;2022-09-13T04:43:59;3.37;;;1.60;;
44228;SDS011;29904;51.058;5.378;2022-09-13T04:46:26;3.03;;;1.48;;
44228;SDS011;29904;51.058;5.378;2022-09-13T04:48:52;3.13;;;1.73;;
44228;SDS011;29904;51.058;5.378;2022-09-13T04:51:18;2.67;;;1.70;;
44228;SDS011;29904;51.058;5.378;2022-09-13T04:53:45;2.72;;;1.60;;
44228;SDS011;29904;51.058;5.378;2022-09-13T04:56:16;3.70;;;1.60;;
44228;SDS011;29904;51.058;5.378;2022-09-13T04:58:43;2.65;;;1.20;;
44228;SDS011;29904;51.058;5.378;2022-09-13T05:01:09;2.63;;;1.60;;
44228;SDS011;29904;51.058;5.378;2022-09-13T05:03:35;3.77;;;2.53;;
44228;SDS011;29904;51.058;5.378;2022-09-13T05:06:02;6.57;;;4.05;;
44228;SDS011;29904;51.058;5.378;2022-09-13T05:08:33;7.15;;;3.88;;
44228;SDS011;29904;51.058;5.378;2022-09-13T05:10:59;3.13;;;2.28;;
44228;SDS011;29904;51.058;5.378;2022-09-13T05:13:26;3.42;;;2.00;;
44228;SDS011;29904;51.058;5.378;2022-09-13T05:16:00;2.08;;;1.63;;
44228;SDS011;29904;51.058;5.378;2022-09-13T05:18:29;4.18;;;1.90;;
44228;SDS011;29904;51.058;5.378;2022-09-13T05:20:56;2.30;;;1.70;;
44228;SDS011;29904;51.058;5.378;2022-09-13T05:23:24;3.60;;;1.70;;
44228;SDS011;29904;51.058;5.378;2022-09-13T05:26:03;2.95;;;1.80;;
44228;SDS011;29904;51.058;5.378;2022-09-13T05:28:30;2.60;;;1.60;;
44228;SDS011;29904;51.058;5.378;2022-09-13T05:31:03;3.20;;;1.70;;
44228;SDS011;29904;51.058;5.378;2022-09-13T05:33:32;3.00;;;1.80;;
44228;SDS011;29904;51.058;5.378;2022-09-13T05:36:00;3.28;;;1.73;;
44228;SDS011;29904;51.058;5.378;2022-09-13T05:38:26;2.55;;;1.55;;
44228;SDS011;29904;51.058;5.378;2022-09-13T05:40:52;3.30;;;1.90;;
44228;SDS011;29904;51.058;5.378;2022-09-13T05:43:23;3.20;;;1.98;;
44228;SDS011;29904;51.058;5.378;2022-09-13T05:46:00;2.45;;;1.80;;
44228;SDS011;29904;51.058;5.378;2022-09-13T05:48:29;3.67;;;1.85;;
44228;SDS011;29904;51.058;5.378;2022-09-13T05:50:55;3.28;;;1.90;;
44228;SDS011;29904;51.058;5.378;2022-09-13T05:53:21;4.30;;;1.95;;
44228;SDS011;29904;51.058;5.378;2022-09-13T05:55:47;3.97;;;1.90;;
44228;SDS011;29904;51.058;5.378;2022-09-13T05:58:13;3.80;;;2.00;;
44228;SDS011;29904;51.058;5.378;2022-09-13T06:00:38;2.25;;;1.60;;
44228;SDS011;29904;51.058;5.378;2022-09-13T06:03:04;3.83;;;1.92;;
44228;SDS011;29904;51.058;5.378;2022-09-13T06:05:30;4.73;;;2.17;;
44228;SDS011;29904;51.058;5.378;2022-09-13T06:07:55;4.10;;;1.90;;
44228;SDS011;29904;51.058;5.378;2022-09-13T06:10:21;4.27;;;2.23;;
44228;SDS011;29904;51.058;5.378;2022-09-13T06:12:49;3.63;;;2.10;;
44228;SDS011;29904;51.058;5.378;2022-09-13T06:15:17;4.50;;;2.20;;
44228;SDS011;29904;51.058;5.378;2022-09-13T06:17:43;2.80;;;1.80;;
44228;SDS011;29904;51.058;5.378;2022-09-13T06:20:10;5.07;;;2.30;;
44228;SDS011;29904;51.058;5.378;2022-09-13T06:22:37;3.47;;;2.57;;
44228;SDS011;29904;51.058;5.378;2022-09-13T06:25:05;3.83;;;2.13;;
44228;SDS011;29904;51.058;5.378;2022-09-13T06:27:32;4.00;;;1.90;;
44228;SDS011;29904;51.058;5.378;2022-09-13T06:29:58;4.72;;;2.10;;
44228;SDS011;29904;51.058;5.378;2022-09-13T06:32:29;4.80;;;2.15;;
44228;SDS011;29904;51.058;5.378;2022-09-13T06:34:55;4.15;;;2.50;;
44228;SDS011;29904;51.058;5.378;2022-09-13T06:37:20;3.63;;;2.20;;
44228;SDS011;29904;51.058;5.378;2022-09-13T06:39:52;4.40;;;2.15;;
44228;SDS011;29904;51.058;5.378;2022-09-13T06:42:18;5.03;;;2.20;;
44228;SDS011;29904;51.058;5.378;2022-09-13T06:44:43;4.07;;;2.07;;
44228;SDS011;29904;51.058;5.378;2022-09-13T06:47:12;4.15;;;2.10;;
44228;SDS011;29904;51.058;5.378;2022-09-13T06:49:38;3.90;;;2.03;;
44228;SDS011;29904;51.058;5.378;2022-09-13T06:52:04;4.47;;;2.10;;
44228;SDS011;29904;51.058;5.378;2022-09-13T06:54:29;3.53;;;2.03;;
44228;SDS011;29904;51.058;5.378;2022-09-13T06:56:57;3.40;;;1.90;;
44228;SDS011;29904;51.058;5.378;2022-09-13T06:59:23;4.33;;;1.97;;
44228;SDS011;29904;51.058;5.378;2022-09-13T07:01:49;3.67;;;2.00;;
44228;SDS011;29904;51.058;5.378;2022-09-13T07:04:15;4.03;;;1.95;;
44228;SDS011;29904;51.058;5.378;2022-09-13T07:06:47;4.38;;;1.80;;
44228;SDS011;29904;51.058;5.378;2022-09-13T07:09:15;3.53;;;1.98;;
44228;SDS011;29904;51.058;5.378;2022-09-13T07:11:43;3.22;;;2.00;;
44228;SDS011;29904;51.058;5.378;2022-09-13T07:14:12;2.30;;;1.75;;
44228;SDS011;29904;51.058;5.378;2022-09-13T07:16:40;2.63;;;1.83;;
44228;SDS011;29904;51.058;5.378;2022-09-13T07:19:06;3.05;;;2.05;;
44228;SDS011;29904;51.058;5.378;2022-09-13T07:21:36;3.53;;;2.22;;
44228;SDS011;29904;51.058;5.378;2022-09-13T07:24:02;3.47;;;2.00;;
44228;SDS011;29904;51.058;5.378;2022-09-13T07:26:28;3.75;;;2.00;;
44228;SDS011;29904;51.058;5.378;2022-09-13T07:28:57;3.70;;;1.80;;
44228;SDS011;29904;51.058;5.378;2022-09-13T07:31:26;3.40;;;1.70;;
44228;SDS011;29904;51.058;5.378;2022-09-13T07:33:55;4.47;;;2.00;;
44228;SDS011;29904;51.058;5.378;2022-09-13T07:36:25;4.22;;;1.90;;
44228;SDS011;29904;51.058;5.378;2022-09-13T07:38:53;3.35;;;1.80;;
44228;SDS011;29904;51.058;5.378;2022-09-13T07:41:20;3.37;;;1.90;;
44228;SDS011;29904;51.058;5.378;2022-09-13T07:43:48;3.20;;;1.60;;
44228;SDS011;29904;51.058;5.378;2022-09-13T07:46:14;2.70;;;1.60;;
44228;SDS011;29904;51.058;5.378;2022-09-13T07:48:42;3.10;;;1.70;;
44228;SDS011;29904;51.058;5.378;2022-09-13T07:53:36;2.77;;;1.80;;
44228;SDS011;29904;51.058;5.378;2022-09-13T07:56:03;2.72;;;1.90;;
44228;SDS011;29904;51.058;5.378;2022-09-13T07:58:31;3.03;;;1.87;;
44228;SDS011;29904;51.058;5.378;2022-09-13T08:01:08;3.90;;;1.98;;
44228;SDS011;29904;51.058;5.378;2022-09-13T08:03:35;4.43;;;1.88;;
44228;SDS011;29904;51.058;5.378;2022-09-13T08:06:04;3.70;;;1.92;;
44228;SDS011;29904;51.058;5.378;2022-09-13T08:08:30;3.50;;;1.85;;
44228;SDS011;29904;51.058;5.378;2022-09-13T08:10:57;3.17;;;1.87;;
44228;SDS011;29904;51.058;5.378;2022-09-13T08:13:25;4.35;;;1.83;;
44228;SDS011;29904;51.058;5.378;2022-09-13T08:15:52;4.28;;;1.90;;
44228;SDS011;29904;51.058;5.378;2022-09-13T08:18:18;2.80;;;1.55;;
44228;SDS011;29904;51.058;5.378;2022-09-13T08:20:44;2.47;;;1.70;;
44228;SDS011;29904;51.058;5.378;2022-09-13T08:23:11;2.63;;;1.83;;
44228;SDS011;29904;51.058;5.378;2022-09-13T08:25:38;3.13;;;1.60;;
44228;SDS011;29904;51.058;5.378;2022-09-13T08:28:05;3.17;;;1.70;;
44228;SDS011;29904;51.058;5.378;2022-09-13T08:30:32;2.17;;;1.63;;
44228;SDS011;29904;51.058;5.378;2022-09-13T08:33:00;3.97;;;1.90;;
44228;SDS011;29904;51.058;5.378;2022-09-13T08:35:28;2.50;;;1.80;;
44228;SDS011;29904;51.058;5.378;2022-09-13T08:37:55;2.63;;;1.83;;
44228;SDS011;29904;51.058;5.378;2022-09-13T08:40:21;3.20;;;2.07;;
44228;SDS011;29904;51.058;5.378;2022-09-13T08:45:39;3.75;;;2.20;;
44228;SDS011;29904;51.058;5.378;2022-09-13T08:48:12;3.93;;;2.13;;
44228;SDS011;29904;51.058;5.378;2022-09-13T08:50:42;3.95;;;2.20;;
44228;SDS011;29904;51.058;5.378;2022-09-13T08:53:18;4.60;;;2.33;;
44228;SDS011;29904;51.058;5.378;2022-09-13T08:56:17;5.88;;;3.05;;
44228;SDS011;29904;51.058;5.378;2022-09-13T08:58:51;5.93;;;2.40;;
44228;SDS011;29904;51.058;5.378;2022-09-13T09:01:51;3.83;;;3.00;;
44228;SDS011;29904;51.058;5.378;2022-09-13T09:04:50;3.80;;;2.35;;
44228;SDS011;29904;51.058;5.378;2022-09-13T09:07:23;4.07;;;2.55;;
44228;SDS011;29904;51.058;5.378;2022-09-13T09:09:59;4.93;;;2.58;;
44228;SDS011;29904;51.058;5.378;2022-09-13T09:13:31;4.87;;;2.73;;
44228;SDS011;29904;51.058;5.378;2022-09-13T09:19:11;4.20;;;2.35;;
44228;SDS011;29904;51.058;5.378;2022-09-13T09:21:58;4.43;;;1.90;;
44228;SDS011;29904;51.058;5.378;2022-09-13T09:24:25;3.80;;;2.40;;
44228;SDS011;29904;51.058;5.378;2022-09-13T09:26:57;5.53;;;2.78;;
44228;SDS011;29904;51.058;5.378;2022-09-13T09:29:29;4.57;;;2.80;;
44228;SDS011;29904;51.058;5.378;2022-09-13T09:37:30;4.53;;;2.60;;
44228;SDS011;29904;51.058;5.378;2022-09-13T09:39:58;5.87;;;2.40;;
44228;SDS011;29904;51.058;5.378;2022-09-13T09:42:28;4.05;;;2.20;;
44228;SDS011;29904;51.058;5.378;2022-09-13T09:45:00;4.90;;;2.38;;
44228;SDS011;29904;51.058;5.378;2022-09-13T09:47:50;5.13;;;2.50;;
44228;SDS011;29904;51.058;5.378;2022-09-13T09:50:23;4.47;;;2.70;;
44228;SDS011;29904;51.058;5.378;2022-09-13T09:58:40;4.35;;;2.50;;
44228;SDS011;29904;51.058;5.378;2022-09-13T10:03:54;4.95;;;2.40;;
44228;SDS011;29904;51.058;5.378;2022-09-13T10:06:32;4.90;;;2.60;;
44228;SDS011;29904;51.058;5.378;2022-09-13T10:11:42;3.90;;;2.33;;
44228;SDS011;29904;51.058;5.378;2022-09-13T10:19:58;4.75;;;2.55;;
44228;SDS011;29904;51.058;5.378;2022-09-13T10:22:25;5.72;;;2.20;;
44228;SDS011;29904;51.058;5.378;2022-09-13T10:24:52;2.63;;;2.10;;
44228;SDS011;29904;51.058;5.378;2022-09-13T10:27:20;3.63;;;2.10;;
44228;SDS011;29904;51.058;5.378;2022-09-13T10:29:52;3.60;;;2.13;;
44228;SDS011;29904;51.058;5.378;2022-09-13T10:32:23;5.13;;;2.40;;
44228;SDS011;29904;51.058;5.378;2022-09-13T10:34:50;5.10;;;2.45;;
44228;SDS011;29904;51.058;5.378;2022-09-13T10:37:22;4.85;;;1.70;;
44228;SDS011;29904;51.058;5.378;2022-09-13T10:39:56;4.93;;;2.15;;
44228;SDS011;29904;51.058;5.378;2022-09-13T10:42:26;3.45;;;1.80;;
44228;SDS011;29904;51.058;5.378;2022-09-13T10:44:54;6.05;;;2.15;;
44228;SDS011;29904;51.058;5.378;2022-09-13T10:47:28;3.25;;;1.83;;
44228;SDS011;29904;51.058;5.378;2022-09-13T10:52:44;3.08;;;1.60;;
44228;SDS011;29904;51.058;5.378;2022-09-13T11:06:11;1.77;;;1.10;;
44228;SDS011;29904;51.058;5.378;2022-09-13T11:14:37;1.70;;;1.00;;
44228;SDS011;29904;51.058;5.378;2022-09-13T11:23:12;2.75;;;1.50;;
44228;SDS011;29904;51.058;5.378;2022-09-13T11:26:08;2.83;;;1.52;;
44228;SDS011;29904;51.058;5.378;2022-09-13T11:28:53;3.83;;;1.40;;
44228;SDS011;29904;51.058;5.378;2022-09-13T11:31:41;3.15;;;1.35;;
44228;SDS011;29904;51.058;5.378;2022-09-13T11:34:23;4.20;;;1.40;;
44228;SDS011;29904;51.058;5.378;2022-09-13T11:37:14;3.20;;;1.25;;
44228;SDS011;29904;51.058;5.378;2022-09-13T11:40:24;2.23;;;1.20;;
44228;SDS011;29904;51.058;5.378;2022-09-13T11:51:38;3.85;;;1.98;;
44228;SDS011;29904;51.058;5.378;2022-09-13T11:54:19;2.50;;;1.50;;
44228;SDS011;29904;51.058;5.378;2022-09-13T11:56:48;3.33;;;1.40;;
44228;SDS011;29904;51.058;5.378;2022-09-13T11:59:24;2.05;;;1.17;;
44228;SDS011;29904;51.058;5.378;2022-09-13T12:01:56;2.35;;;1.23;;
44228;SDS011;29904;51.058;5.378;2022-09-13T12:04:30;2.17;;;1.48;;
44228;SDS011;29904;51.058;5.378;2022-09-13T12:07:03;2.70;;;1.45;;
44228;SDS011;29904;51.058;5.378;2022-09-13T12:09:37;2.00;;;1.40;;
44228;SDS011;29904;51.058;5.378;2022-09-13T12:12:11;5.28;;;1.80;;
44228;SDS011;29904;51.058;5.378;2022-09-13T12:14:46;3.58;;;1.33;;
44228;SDS011;29904;51.058;5.378;2022-09-13T12:19:53;2.35;;;1.30;;
44228;SDS011;29904;51.058;5.378;2022-09-13T12:22:25;2.70;;;1.13;;
44228;SDS011;29904;51.058;5.378;2022-09-13T12:24:55;3.00;;;1.40;;
44228;SDS011;29904;51.058;5.378;2022-09-13T12:30:14;2.87;;;1.37;;
44228;SDS011;29904;51.058;5.378;2022-09-13T12:32:40;3.23;;;1.37;;
44228;SDS011;29904;51.058;5.378;2022-09-13T12:40:47;3.08;;;1.50;;
44228;SDS011;29904;51.058;5.378;2022-09-13T12:55:36;4.00;;;1.70;;
44228;SDS011;29904;51.058;5.378;2022-09-13T13:01:14;2.42;;;1.40;;
44228;SDS011;29904;51.058;5.378;2022-09-13T13:03:50;2.28;;;1.33;;
44228;SDS011;29904;51.058;5.378;2022-09-13T13:06:30;3.00;;;1.58;;
44228;SDS011;29904;51.058;5.378;2022-09-13T13:09:20;2.78;;;1.60;;
44228;SDS011;29904;51.058;5.378;2022-09-13T13:12:05;3.92;;;1.58;;
44228;SDS011;29904;51.058;5.378;2022-09-13T13:20:00;4.07;;;1.53;;
44228;SDS011;29904;51.058;5.378;2022-09-13T13:23:21;3.05;;;1.40;;
44228;SDS011;29904;51.058;5.378;2022-09-13T13:33:54;2.10;;;1.40;;
44228;SDS011;29904;51.058;5.378;2022-09-13T13:36:29;3.17;;;1.93;;
44228;SDS011;29904;51.058;5.378;2022-09-13T13:39:01;3.38;;;1.70;;
44228;SDS011;29904;51.058;5.378;2022-09-13T13:46:42;2.10;;;1.30;;
44228;SDS011;29904;51.058;5.378;2022-09-13T13:59:55;2.08;;;1.50;;
44228;SDS011;29904;51.058;5.378;2022-09-13T14:02:42;3.70;;;1.40;;
44228;SDS011;29904;51.058;5.378;2022-09-13T14:05:21;2.60;;;1.38;;
44228;SDS011;29904;51.058;5.378;2022-09-13T14:07:53;2.73;;;1.50;;
44228;SDS011;29904;51.058;5.378;2022-09-13T14:19:45;2.05;;;1.30;;
44228;SDS011;29904;51.058;5.378;2022-09-13T14:22:15;2.47;;;1.50;;
44228;SDS011;29904;51.058;5.378;2022-09-13T14:24:42;2.40;;;1.50;;
44228;SDS011;29904;51.058;5.378;2022-09-13T14:27:23;2.35;;;1.40;;
44228;SDS011;29904;51.058;5.378;2022-09-13T14:29:59;5.80;;;1.67;;
44228;SDS011;29904;51.058;5.378;2022-09-13T14:32:29;3.72;;;1.30;;
44228;SDS011;29904;51.058;5.378;2022-09-13T14:35:04;2.05;;;1.40;;
44228;SDS011;29904;51.058;5.378;2022-09-13T14:37:45;2.95;;;1.30;;
44228;SDS011;29904;51.058;5.378;2022-09-13T14:40:15;3.72;;;1.52;;
44228;SDS011;29904;51.058;5.378;2022-09-13T14:42:44;3.92;;;1.70;;
44228;SDS011;29904;51.058;5.378;2022-09-13T14:45:15;2.95;;;1.60;;
44228;SDS011;29904;51.058;5.378;2022-09-13T14:47:49;2.28;;;1.50;;
44228;SDS011;29904;51.058;5.378;2022-09-13T14:50:34;4.45;;;1.90;;
44228;SDS011;29904;51.058;5.378;2022-09-13T14:53:13;3.25;;;1.77;;
44228;SDS011;29904;51.058;5.378;2022-09-13T14:55:51;4.07;;;2.20;;
44228;SDS011;29904;51.058;5.378;2022-09-13T14:58:36;2.95;;;2.05;;
44228;SDS011;29904;51.058;5.378;2022-09-13T15:01:10;2.65;;;1.92;;
44228;SDS011;29904;51.058;5.378;2022-09-13T15:03:40;3.65;;;2.10;;
44228;SDS011;29904;51.058;5.378;2022-09-13T15:06:18;3.90;;;2.20;;
44228;SDS011;29904;51.058;5.378;2022-09-13T15:08:54;3.78;;;2.20;;
44228;SDS011;29904;51.058;5.378;2022-09-13T15:14:22;4.07;;;2.25;;
44228;SDS011;29904;51.058;5.378;2022-09-13T15:16:59;4.13;;;2.10;;
44228;SDS011;29904;51.058;5.378;2022-09-13T15:19:39;2.97;;;2.15;;
44228;SDS011;29904;51.058;5.378;2022-09-13T15:22:22;3.43;;;2.00;;
44228;SDS011;29904;51.058;5.378;2022-09-13T15:24:54;3.83;;;2.42;;
44228;SDS011;29904;51.058;5.378;2022-09-13T15:27:25;4.60;;;2.20;;
44228;SDS011;29904;51.058;5.378;2022-09-13T15:30:03;2.80;;;2.00;;
44228;SDS011;29904;51.058;5.378;2022-09-13T15:32:31;4.75;;;2.25;;
44228;SDS011;29904;51.058;5.378;2022-09-13T15:35:00;4.07;;;2.20;;
44228;SDS011;29904;51.058;5.378;2022-09-13T15:37:31;3.53;;;2.00;;
44228;SDS011;29904;51.058;5.378;2022-09-13T15:40:19;2.65;;;2.30;;
44228;SDS011;29904;51.058;5.378;2022-09-13T15:42:48;3.58;;;2.13;;
44228;SDS011;29904;51.058;5.378;2022-09-13T15:45:17;2.95;;;2.40;;
44228;SDS011;29904;51.058;5.378;2022-09-13T15:47:50;2.60;;;1.95;;
44228;SDS011;29904;51.058;5.378;2022-09-13T15:50:19;3.30;;;2.20;;
44228;SDS011;29904;51.058;5.378;2022-09-13T15:52:54;2.70;;;2.10;;
44228;SDS011;29904;51.058;5.378;2022-09-13T15:55:21;4.47;;;2.15;;
44228;SDS011;29904;51.058;5.378;2022-09-13T15:57:48;2.60;;;2.10;;
44228;SDS011;29904;51.058;5.378;2022-09-13T16:00:17;5.50;;;2.50;;
44228;SDS011;29904;51.058;5.378;2022-09-13T16:02:48;4.00;;;2.50;;
44228;SDS011;29904;51.058;5.378;2022-09-13T16:05:14;4.70;;;2.70;;
44228;SDS011;29904;51.058;5.378;2022-09-13T16:07:40;4.72;;;3.10;;
44228;SDS011;29904;51.058;5.378;2022-09-13T16:10:14;7.45;;;3.70;;
44228;SDS011;29904;51.058;5.378;2022-09-13T16:12:43;5.90;;;3.40;;
44228;SDS011;29904;51.058;5.378;2022-09-13T16:15:09;5.85;;;3.50;;
44228;SDS011;29904;51.058;5.378;2022-09-13T16:17:37;4.90;;;3.70;;
44228;SDS011;29904;51.058;5.378;2022-09-13T16:20:03;5.43;;;3.33;;
44228;SDS011;29904;51.058;5.378;2022-09-13T16:22:31;4.65;;;3.63;;
44228;SDS011;29904;51.058;5.378;2022-09-13T16:24:57;5.63;;;3.70;;
44228;SDS011;29904;51.058;5.378;2022-09-13T16:27:22;4.53;;;3.80;;
44228;SDS011;29904;51.058;5.378;2022-09-13T16:29:52;7.88;;;4.38;;
44228;SDS011;29904;51.058;5.378;2022-09-13T16:32:18;5.65;;;4.10;;
44228;SDS011;29904;51.058;5.378;2022-09-13T16:34:44;5.35;;;4.22;;
44228;SDS011;29904;51.058;5.378;2022-09-13T16:37:16;6.90;;;4.30;;
44228;SDS011;29904;51.058;5.378;2022-09-13T16:39:43;5.55;;;3.78;;
44228;SDS011;29904;51.058;5.378;2022-09-13T16:42:10;5.63;;;4.10;;
44228;SDS011;29904;51.058;5.378;2022-09-13T16:44:36;6.43;;;3.63;;
44228;SDS011;29904;51.058;5.378;2022-09-13T16:47:03;5.82;;;4.20;;
44228;SDS011;29904;51.058;5.378;2022-09-13T16:49:29;6.88;;;4.53;;
44228;SDS011;29904;51.058;5.378;2022-09-13T16:51:55;5.28;;;4.47;;
44228;SDS011;29904;51.058;5.378;2022-09-13T16:54:24;6.32;;;4.03;;
44228;SDS011;29904;51.058;5.378;2022-09-13T16:56:50;5.38;;;4.13;;
44228;SDS011;29904;51.058;5.378;2022-09-13T16:59:16;6.72;;;4.60;;
44228;SDS011;29904;51.058;5.378;2022-09-13T17:01:42;5.65;;;4.07;;
44228;SDS011;29904;51.058;5.378;2022-09-13T17:04:08;5.18;;;3.92;;
44228;SDS011;29904;51.058;5.378;2022-09-13T17:06:35;6.57;;;5.03;;
44228;SDS011;29904;51.058;5.378;2022-09-13T17:09:02;7.63;;;5.22;;
44228;SDS011;29904;51.058;5.378;2022-09-13T17:11:31;8.50;;;5.50;;
44228;SDS011;29904;51.058;5.378;2022-09-13T17:13:59;7.47;;;5.17;;
44228;SDS011;29904;51.058;5.378;2022-09-13T17:18:57;6.53;;;4.75;;
44228;SDS011;29904;51.058;5.378;2022-09-13T17:21:24;6.25;;;4.55;;
44228;SDS011;29904;51.058;5.378;2022-09-13T17:23:50;6.50;;;3.97;;
44228;SDS011;29904;51.058;5.378;2022-09-13T17:26:16;5.55;;;4.10;;
44228;SDS011;29904;51.058;5.378;2022-09-13T17:28:42;5.63;;;4.00;;
44228;SDS011;29904;51.058;5.378;2022-09-13T17:31:08;6.43;;;4.17;;
44228;SDS011;29904;51.058;5.378;2022-09-13T17:33:34;6.57;;;4.30;;
44228;SDS011;29904;51.058;5.378;2022-09-13T17:36:00;5.75;;;4.45;;
44228;SDS011;29904;51.058;5.378;2022-09-13T17:38:32;6.85;;;4.60;;
44228;SDS011;29904;51.058;5.378;2022-09-13T17:41:17;6.28;;;4.50;;
44228;SDS011;29904;51.058;5.378;2022-09-13T17:43:45;7.10;;;4.30;;
44228;SDS011;29904;51.058;5.378;2022-09-13T17:46:16;7.95;;;4.90;;
44228;SDS011;29904;51.058;5.378;2022-09-13T17:48:47;6.55;;;4.32;;
44228;SDS011;29904;51.058;5.378;2022-09-13T17:51:15;7.53;;;4.97;;
44228;SDS011;29904;51.058;5.378;2022-09-13T17:53:43;8.60;;;4.90;;
44228;SDS011;29904;51.058;5.378;2022-09-13T17:56:15;6.25;;;4.90;;
44228;SDS011;29904;51.058;5.378;2022-09-13T17:58:42;7.93;;;4.70;;
44228;SDS011;29904;51.058;5.378;2022-09-13T18:01:08;6.38;;;4.68;;
44228;SDS011;29904;51.058;5.378;2022-09-13T18:03:34;6.82;;;4.47;;
44228;SDS011;29904;51.058;5.378;2022-09-13T18:06:03;7.20;;;4.53;;
44228;SDS011;29904;51.058;5.378;2022-09-13T18:08:31;6.40;;;4.67;;
44228;SDS011;29904;51.058;5.378;2022-09-13T18:11:05;4.85;;;3.88;;
44228;SDS011;29904;51.058;5.378;2022-09-13T18:13:35;6.40;;;4.13;;
44228;SDS011;29904;51.058;5.378;2022-09-13T18:16:06;6.55;;;3.75;;
44228;SDS011;29904;51.058;5.378;2022-09-13T18:18:33;6.07;;;4.38;;